createdAt,value
2023-10-12T00:01:58.257Z,66.77
2023-10-12T00:04:00.621Z,66.53
2023-10-12T00:06:03.162Z,66.07
2023-10-12T00:08:11.264Z,66.28
2023-10-12T00:10:13.772Z,65.42
2023-10-12T00:12:16.653Z,66.86
2023-10-12T00:14:18.356Z,67.04
2023-10-12T00:16:20.456Z,67.04
2023-10-12T00:18:23.451Z,67.28
2023-10-12T00:20:25.766Z,66.61
2023-10-12T00:22:27.318Z,66.33
2023-10-12T00:24:28.973Z,66.38
2023-10-12T00:26:32.579Z,66.75
2023-10-12T00:28:40.265Z,66.81
2023-10-12T00:30:42.947Z,66.95
2023-10-12T00:32:45.029Z,66.74
2023-10-12T00:34:49.948Z,66.65
2023-10-12T00:36:53.831Z,66.26
2023-10-12T00:39:00.515Z,66.49
2023-10-12T00:41:05.969Z,66.21
2023-10-12T00:43:07.884Z,66.28
2023-10-12T00:45:20.395Z,66.10
2023-10-12T00:47:40.961Z,66.51
2023-10-12T00:49:49.925Z,66.47
2023-10-12T00:51:53.658Z,66.13
2023-10-12T00:53:58.333Z,66.57
2023-10-12T00:56:02.874Z,67.00
2023-10-12T00:58:06.415Z,66.69
2023-10-12T01:00:16.560Z,66.32
2023-10-12T01:02:22.310Z,65.64
2023-10-12T01:04:24.188Z,66.37
2023-10-12T01:06:28.427Z,66.49
2023-10-12T01:08:31.559Z,66.10
2023-10-12T01:10:34.233Z,66.56
2023-10-12T01:12:35.868Z,66.35
2023-10-12T01:14:40.910Z,66.36
2023-10-12T01:16:51.207Z,66.47
2023-10-12T01:19:06.754Z,66.07
2023-10-12T01:21:12.569Z,65.92
2023-10-12T01:23:14.351Z,66.12
2023-10-12T01:25:30.110Z,66.07
2023-10-12T01:27:31.761Z,66.22
2023-10-12T01:29:33.419Z,66.05
2023-10-12T01:31:37.807Z,66.06
2023-10-12T01:33:42.786Z,65.53
2023-10-12T01:35:50.997Z,66.04
2023-10-12T01:38:02.362Z,66.10
2023-10-12T01:40:04.401Z,65.73
2023-10-12T01:42:08.197Z,65.35
2023-10-12T01:44:13.812Z,65.42
2023-10-12T01:46:22.632Z,66.07
2023-10-12T01:48:24.402Z,65.83
2023-10-12T01:50:26.220Z,65.68
2023-10-12T01:52:28.077Z,66.14
2023-10-12T01:54:30.724Z,66.12
2023-10-12T01:56:35.898Z,66.67
2023-10-12T01:58:39.759Z,67.17
2023-10-12T02:00:42.930Z,67.10
2023-10-12T02:02:51.390Z,67.40
2023-10-12T02:04:53.407Z,67.41
2023-10-12T02:06:57.356Z,67.75
2023-10-12T02:09:11.747Z,67.55
2023-10-12T02:11:17.806Z,67.58
2023-10-12T02:13:22.781Z,67.83
2023-10-12T02:15:33.081Z,67.08
2023-10-12T02:17:37.036Z,67.32
2023-10-12T02:19:45.286Z,67.17
2023-10-12T02:21:48.055Z,66.81
2023-10-12T02:23:59.046Z,66.92
2023-10-12T02:26:00.697Z,67.01
2023-10-12T02:28:04.915Z,66.69
2023-10-12T02:30:08.666Z,66.46
2023-10-12T02:32:24.017Z,66.61
2023-10-12T02:34:28.388Z,66.42
2023-10-12T02:36:30.423Z,66.41
2023-10-12T02:38:32.487Z,66.44
2023-10-12T02:40:34.985Z,66.69
2023-10-12T02:42:40.089Z,66.30
2023-10-12T02:44:48.920Z,65.94
2023-10-12T02:47:22.636Z,66.09
2023-10-12T02:49:25.306Z,66.19
2023-10-12T02:51:26.960Z,66.16
2023-10-12T02:53:31.333Z,66.16
2023-10-12T02:55:41.780Z,65.88
2023-10-12T02:57:54.418Z,66.08
2023-10-12T02:59:58.801Z,66.25
2023-10-12T03:02:19.585Z,65.91
2023-10-12T03:04:21.684Z,66.24
2023-10-12T03:06:26.591Z,66.22
2023-10-12T03:08:47.978Z,65.98
2023-10-12T03:11:00.908Z,65.88
2023-10-12T03:13:06.213Z,66.06
2023-10-12T03:15:14.788Z,66.12
2023-10-12T03:17:17.482Z,66.12
2023-10-12T03:19:29.594Z,66.15
2023-10-12T03:21:34.552Z,66.04
2023-10-12T03:23:36.341Z,66.56
2023-10-12T03:25:47.729Z,66.93
2023-10-12T03:27:53.425Z,67.01
2023-10-12T03:30:07.658Z,66.44
2023-10-12T03:32:09.342Z,66.41
2023-10-12T03:34:29.780Z,66.24
2023-10-12T03:36:34.203Z,66.86
2023-10-12T03:38:36.385Z,66.49
2023-10-12T03:40:51.743Z,66.87
2023-10-12T03:42:56.013Z,66.73
2023-10-12T03:45:14.764Z,67.26
2023-10-12T03:47:24.789Z,67.19
2023-10-12T03:49:45.240Z,68.23
2023-10-12T03:51:47.435Z,67.69
2023-10-12T03:53:57.590Z,67.17
2023-10-12T03:56:02.214Z,67.50
2023-10-12T03:58:07.886Z,68.02
2023-10-12T04:00:10.472Z,68.38
2023-10-12T04:02:16.412Z,68.31
2023-10-12T04:07:01.441Z,68.04
2023-10-12T04:09:15.644Z,67.55
2023-10-12T04:11:20.108Z,68.30
2023-10-12T04:13:27.649Z,68.27
2023-10-12T04:15:36.199Z,68.41
2023-10-12T04:17:49.044Z,68.56
2023-10-12T04:20:16.058Z,68.68
2023-10-12T04:22:27.342Z,68.21
2023-10-12T04:24:29.003Z,68.71
2023-10-12T04:26:36.455Z,69.06
2023-10-12T04:28:38.069Z,69.05
2023-10-12T04:30:51.708Z,69.29
2023-10-12T04:33:12.525Z,69.40
2023-10-12T04:35:22.278Z,69.08
2023-10-12T04:37:28.723Z,69.40
2023-10-12T04:39:37.832Z,69.68
2023-10-12T04:41:39.902Z,69.92
2023-10-12T04:43:41.431Z,70.07
2023-10-12T04:46:02.331Z,69.74
2023-10-12T04:48:19.169Z,70.06
2023-10-12T04:50:44.568Z,69.57
2023-10-12T04:53:06.717Z,69.62
2023-10-12T04:55:18.892Z,69.87
2023-10-12T04:57:27.425Z,69.70
2023-10-12T04:59:50.598Z,70.80
2023-10-12T05:02:10.212Z,70.50
2023-10-12T05:04:27.788Z,71.08
2023-10-12T05:06:32.354Z,70.73
2023-10-12T05:08:35.605Z,70.31
2023-10-12T05:10:37.249Z,70.11
2023-10-12T05:12:38.907Z,70.26
2023-10-12T05:14:40.510Z,71.60
2023-10-12T05:16:46.649Z,71.45
2023-10-12T05:18:49.306Z,71.83
2023-10-12T05:20:51.858Z,71.82
2023-10-12T05:22:54.053Z,72.36
2023-10-12T05:24:55.799Z,72.72
2023-10-12T05:27:10.342Z,72.30
2023-10-12T05:29:27.144Z,72.32
2023-10-12T05:31:29.498Z,72.61
2023-10-12T05:33:34.335Z,72.62
2023-10-12T05:35:53.708Z,72.66
2023-10-12T05:37:57.437Z,72.57
2023-10-12T05:40:01.065Z,72.63
2023-10-12T05:42:07.330Z,72.94
2023-10-12T05:44:15.283Z,72.30
2023-10-12T05:46:16.948Z,72.08
2023-10-12T05:48:20.438Z,72.08
2023-10-12T05:50:26.156Z,72.71
2023-10-12T05:52:28.086Z,73.71
2023-10-12T05:54:29.918Z,73.73
2023-10-12T05:56:34.072Z,73.71
2023-10-12T05:58:35.718Z,74.13
2023-10-12T06:00:37.643Z,74.89
2023-10-12T06:02:39.714Z,73.71
2023-10-12T06:04:43.103Z,73.03
2023-10-12T06:06:44.898Z,73.12
2023-10-12T06:08:46.489Z,73.71
2023-10-12T06:10:48.127Z,73.17
2023-10-12T06:12:50.132Z,73.23
2023-10-12T06:14:54.755Z,72.88
2023-10-12T06:16:57.619Z,72.55
2023-10-12T06:19:01.862Z,73.74
2023-10-12T06:21:10.117Z,74.66
2023-10-12T06:23:14.998Z,74.85
2023-10-12T06:25:19.554Z,75.41
2023-10-12T06:27:21.249Z,74.51
2023-10-12T06:29:27.124Z,74.98
2023-10-12T06:31:30.842Z,75.67
2023-10-12T06:33:32.821Z,76.29
2023-10-12T06:35:36.655Z,76.37
2023-10-12T06:37:57.392Z,76.00
2023-10-12T06:40:17.668Z,74.92
2023-10-12T06:42:28.008Z,75.04
2023-10-12T06:44:30.107Z,74.72
2023-10-12T06:46:45.018Z,74.46
2023-10-12T06:48:48.310Z,74.78
2023-10-12T06:50:54.759Z,75.34
2023-10-12T06:52:58.563Z,74.86
2023-10-12T06:55:01.086Z,75.56
2023-10-12T06:57:18.969Z,75.71
2023-10-12T06:59:21.007Z,76.10
2023-10-12T07:01:28.287Z,76.34
2023-10-12T07:03:29.812Z,76.74
2023-10-12T07:05:34.650Z,76.93
2023-10-12T07:07:42.495Z,74.88
2023-10-12T07:09:45.793Z,76.19
2023-10-12T07:11:47.488Z,74.98
2023-10-12T07:13:50.820Z,74.69
2023-10-12T07:15:52.454Z,74.60
2023-10-12T07:17:55.231Z,75.68
2023-10-12T07:19:56.874Z,74.47
2023-10-12T07:22:02.461Z,73.39
2023-10-12T07:24:09.282Z,74.57
2023-10-12T07:26:13.872Z,73.89
2023-10-12T07:28:33.498Z,73.46
2023-10-12T07:30:37.300Z,73.44
2023-10-12T07:32:57.244Z,73.24
2023-10-12T07:35:10.558Z,73.49
2023-10-12T07:37:17.574Z,71.54
2023-10-12T07:39:23.924Z,72.21
2023-10-12T07:41:34.585Z,72.96
2023-10-12T07:43:39.754Z,71.81
2023-10-12T07:45:49.215Z,72.17
2023-10-12T07:48:00.611Z,72.75
2023-10-12T07:50:12.480Z,72.76
2023-10-12T07:52:17.084Z,72.73
2023-10-12T07:54:38.798Z,72.11
2023-10-12T07:56:41.546Z,71.53
2023-10-12T07:58:59.621Z,69.91
2023-10-12T08:01:19.884Z,71.95
2023-10-12T08:03:26.294Z,72.72
2023-10-12T08:05:48.248Z,70.92
2023-10-12T08:08:00.450Z,72.04
2023-10-12T08:10:10.972Z,71.98
2023-10-12T08:12:27.226Z,72.15
2023-10-12T08:14:29.256Z,71.87
2023-10-12T08:16:38.267Z,71.01
2023-10-12T08:19:02.817Z,71.32
2023-10-12T08:21:11.852Z,70.16
2023-10-12T08:23:18.960Z,70.17
2023-10-12T08:25:28.551Z,71.03
2023-10-12T08:27:40.814Z,71.65
2023-10-12T08:29:42.386Z,71.58
2023-10-12T08:31:45.221Z,71.85
2023-10-12T08:33:49.996Z,71.29
2023-10-12T08:36:09.926Z,71.15
2023-10-12T08:38:13.194Z,73.36
2023-10-12T08:40:21.143Z,73.73
2023-10-12T08:42:23.729Z,72.63
2023-10-12T08:44:25.658Z,72.72
2023-10-12T08:46:43.016Z,72.83
2023-10-12T08:48:54.590Z,71.42
2023-10-12T08:51:10.262Z,73.52
2023-10-12T08:53:14.755Z,71.77
2023-10-12T08:55:20.291Z,71.18
2023-10-12T08:57:36.837Z,70.13
2023-10-12T08:59:43.884Z,70.30
2023-10-12T09:01:45.929Z,72.44
2023-10-12T09:03:47.675Z,73.60
2023-10-12T09:06:01.659Z,73.27
2023-10-12T09:08:14.677Z,73.10
2023-10-12T09:10:37.636Z,74.07
2023-10-12T09:12:41.423Z,74.68
2023-10-12T09:14:44.639Z,74.91
2023-10-12T09:16:56.925Z,75.22
2023-10-12T09:18:59.025Z,75.57
2023-10-12T09:21:18.099Z,75.26
2023-10-12T09:23:23.114Z,76.78
2023-10-12T09:25:43.474Z,76.12
2023-10-12T09:27:50.823Z,77.15
2023-10-12T09:29:59.305Z,75.59
2023-10-12T09:32:19.619Z,76.14
2023-10-12T09:34:43.706Z,80.94
2023-10-12T09:36:51.001Z,80.60
2023-10-12T09:38:58.426Z,78.12
2023-10-12T09:41:00.718Z,78.74
2023-10-12T09:43:08.162Z,78.42
2023-10-12T09:45:29.477Z,77.91
2023-10-12T09:47:45.304Z,78.31
2023-10-12T09:49:55.334Z,79.34
2023-10-12T09:52:01.157Z,81.05
2023-10-12T09:54:17.489Z,81.59
2023-10-12T09:56:25.467Z,81.96
2023-10-12T09:58:27.312Z,80.51
2023-10-12T10:00:29.417Z,80.85
2023-10-12T10:02:35.748Z,81.97
2023-10-12T10:04:42.329Z,81.90
2023-10-12T10:06:52.734Z,83.02
2023-10-12T10:09:24.329Z,82.91
2023-10-12T10:11:27.851Z,84.37
2023-10-12T10:13:50.649Z,83.66
2023-10-12T10:16:00.231Z,81.13
2023-10-12T10:18:02.406Z,80.59
2023-10-12T10:20:15.379Z,80.45
2023-10-12T10:22:17.643Z,80.40
2023-10-12T10:24:25.989Z,81.14
2023-10-12T10:26:35.653Z,82.47
2023-10-12T10:28:37.505Z,82.88
2023-10-12T10:30:42.194Z,83.11
2023-10-12T10:32:46.554Z,82.96
2023-10-12T10:34:48.227Z,84.04
2023-10-12T10:36:53.389Z,83.79
2023-10-12T10:38:55.862Z,83.78
2023-10-12T10:41:06.696Z,82.93
2023-10-12T10:43:15.775Z,81.23
2023-10-12T10:45:17.434Z,83.35
2023-10-12T10:47:22.416Z,80.97
2023-10-12T10:49:34.318Z,81.28
2023-10-12T10:51:41.862Z,82.12
2023-10-12T10:53:43.540Z,83.39
2023-10-12T10:55:48.197Z,83.78
2023-10-12T10:57:51.350Z,82.83
2023-10-12T10:59:53.597Z,81.56
2023-10-12T11:01:57.457Z,81.93
2023-10-12T11:04:01.684Z,83.51
2023-10-12T11:06:03.590Z,84.97
2023-10-12T11:08:21.222Z,83.80
2023-10-12T11:10:49.184Z,82.69
2023-10-12T11:12:51.138Z,83.61
2023-10-12T11:15:01.380Z,83.25
2023-10-12T11:17:06.481Z,84.66
2023-10-12T11:19:10.363Z,84.22
2023-10-12T11:21:12.396Z,84.99
2023-10-12T11:23:16.754Z,82.15
2023-10-12T11:25:19.943Z,82.26
2023-10-12T11:27:32.304Z,81.17
2023-10-12T11:29:51.097Z,83.23
2023-10-12T11:32:09.754Z,83.57
2023-10-12T11:34:13.958Z,84.38
2023-10-12T11:36:25.096Z,86.51
2023-10-12T11:38:28.035Z,86.19
2023-10-12T11:40:32.715Z,86.89
2023-10-12T11:42:35.434Z,86.62
2023-10-12T11:44:38.149Z,86.63
2023-10-12T11:46:44.792Z,87.04
2023-10-12T11:49:01.950Z,86.90
2023-10-12T11:51:14.181Z,86.66
2023-10-12T11:53:16.548Z,88.06
2023-10-12T11:55:20.547Z,90.72
2023-10-12T11:57:22.594Z,90.83
2023-10-12T11:59:28.143Z,88.63
2023-10-12T12:01:34.389Z,90.14
2023-10-12T12:03:41.039Z,90.83
2023-10-12T12:05:44.876Z,92.59
2023-10-12T12:07:52.195Z,92.00
2023-10-12T12:10:01.528Z,91.40
2023-10-12T12:12:08.724Z,90.74
2023-10-12T12:14:10.511Z,90.02
2023-10-12T12:16:12.176Z,90.73
2023-10-12T12:18:19.760Z,91.35
2023-10-12T12:20:24.341Z,91.28
2023-10-12T12:22:26.574Z,93.12
2023-10-12T12:24:30.433Z,92.31
2023-10-12T12:26:34.825Z,92.13
2023-10-12T12:28:44.497Z,93.10
2023-10-12T12:30:59.777Z,92.49
2023-10-12T12:33:03.899Z,92.73
2023-10-12T12:35:07.514Z,92.67
2023-10-12T12:37:10.037Z,92.36
2023-10-12T12:39:12.901Z,92.41
2023-10-12T12:41:23.442Z,92.41
2023-10-12T12:43:25.104Z,91.26
2023-10-12T12:45:26.785Z,90.40
2023-10-12T12:47:30.666Z,91.15
2023-10-12T12:49:32.268Z,91.27
2023-10-12T12:51:33.844Z,93.40
2023-10-12T12:53:35.554Z,90.61
2023-10-12T12:55:39.594Z,91.03
2023-10-12T12:57:43.266Z,89.76
2023-10-12T12:59:45.054Z,91.64
2023-10-12T13:01:47.393Z,91.52
2023-10-12T13:03:49.162Z,91.85
2023-10-12T13:05:50.785Z,89.77
2023-10-12T13:07:52.368Z,88.34
2023-10-12T13:09:54.861Z,88.48
2023-10-12T13:11:57.609Z,89.98
2023-10-12T13:13:59.121Z,90.50
2023-10-12T13:16:05.103Z,90.03
2023-10-12T13:18:08.721Z,88.95
2023-10-12T13:20:20.048Z,89.24
2023-10-12T13:22:21.726Z,88.90
2023-10-12T13:24:23.258Z,90.00
2023-10-12T13:26:25.261Z,89.73
2023-10-12T13:28:28.287Z,88.62
2023-10-12T13:30:31.914Z,90.54
2023-10-12T13:32:33.543Z,87.18
2023-10-12T13:34:35.284Z,87.24
2023-10-12T13:36:40.289Z,88.17
2023-10-12T13:38:43.005Z,87.89
2023-10-12T13:40:47.487Z,87.42
2023-10-12T13:42:49.189Z,87.38
2023-10-12T13:44:51.665Z,87.97
2023-10-12T13:46:53.653Z,86.50
2023-10-12T13:48:55.395Z,86.68
2023-10-12T13:51:21.220Z,84.75
2023-10-12T13:53:24.268Z,86.33
2023-10-12T13:55:27.704Z,86.93
2023-10-12T13:57:29.549Z,86.83
2023-10-12T13:59:31.185Z,85.93
2023-10-12T14:01:37.774Z,85.29
2023-10-12T14:03:39.970Z,85.34
2023-10-12T14:05:41.815Z,83.54
2023-10-12T14:07:43.357Z,84.13
2023-10-12T14:09:45.049Z,84.57
2023-10-12T14:11:52.504Z,84.58
2023-10-12T14:13:54.098Z,84.12
2023-10-12T14:15:55.723Z,84.99
2023-10-12T14:17:57.854Z,86.74
2023-10-12T14:19:59.718Z,85.28
2023-10-12T14:22:04.792Z,86.84
2023-10-12T14:24:08.774Z,86.10
2023-10-12T14:26:11.930Z,88.15
2023-10-12T14:28:17.529Z,88.91
2023-10-12T14:30:26.249Z,90.73
2023-10-12T14:32:27.976Z,89.90
2023-10-12T14:34:30.512Z,89.63
2023-10-12T14:36:32.153Z,89.45
2023-10-12T14:38:35.761Z,90.57
2023-10-12T14:40:41.677Z,91.96
2023-10-12T14:42:43.795Z,91.46
2023-10-12T14:44:47.089Z,92.52
2023-10-12T14:46:56.128Z,91.18
2023-10-12T14:48:59.570Z,90.89
2023-10-12T14:51:08.491Z,92.68
2023-10-12T14:53:16.906Z,93.64
2023-10-12T14:55:18.753Z,93.88
2023-10-12T14:57:20.911Z,93.11
2023-10-12T14:59:22.995Z,93.91
2023-10-12T15:01:29.684Z,93.00
2023-10-12T15:03:35.689Z,93.89
2023-10-12T15:05:38.590Z,94.89
2023-10-12T15:07:40.168Z,95.92
2023-10-12T15:09:49.452Z,95.56
2023-10-12T15:11:51.317Z,95.93
2023-10-12T15:13:54.827Z,96.39
2023-10-12T15:15:59.681Z,96.98
2023-10-12T15:18:01.477Z,97.41
2023-10-12T15:20:06.842Z,96.77
2023-10-12T15:22:08.846Z,97.09
2023-10-12T15:24:11.106Z,97.20
2023-10-12T15:26:14.816Z,97.21
2023-10-12T15:28:17.514Z,97.34
2023-10-12T15:30:19.158Z,97.12
2023-10-12T15:32:21.034Z,97.71
2023-10-12T15:34:22.782Z,97.61
2023-10-12T15:36:24.766Z,97.55
2023-10-12T15:38:34.055Z,96.30
2023-10-12T15:40:37.499Z,98.47
2023-10-12T15:42:41.035Z,99.08
2023-10-12T15:44:42.597Z,97.90
2023-10-12T15:46:46.252Z,98.32
2023-10-12T15:48:48.070Z,98.39
2023-10-12T15:50:51.405Z,97.11
2023-10-12T15:52:54.201Z,97.18
2023-10-12T15:54:55.860Z,98.21
2023-10-12T15:56:57.411Z,98.15
2023-10-12T15:59:02.565Z,99.89
2023-10-12T16:01:05.832Z,100.00
2023-10-12T16:03:08.421Z,100.00
2023-10-12T16:05:10.120Z,100.00
2023-10-12T16:07:18.163Z,99.97
2023-10-12T16:09:25.560Z,100.00
2023-10-12T16:11:27.255Z,100.00
2023-10-12T16:13:28.890Z,100.00
2023-10-12T16:15:30.591Z,98.72
2023-10-12T16:17:32.212Z,99.30
2023-10-12T16:19:33.983Z,100.00
2023-10-12T16:21:37.206Z,100.00
2023-10-12T16:23:38.830Z,100.00
2023-10-12T16:25:42.643Z,100.00
2023-10-12T16:27:49.894Z,100.00
2023-10-12T16:30:00.022Z,100.00
2023-10-12T16:32:02.469Z,99.84
2023-10-12T16:34:07.243Z,99.79
2023-10-12T16:36:10.030Z,100.00
2023-10-12T16:38:12.795Z,100.00
2023-10-12T16:40:16.672Z,100.00
2023-10-12T16:42:18.320Z,99.84
2023-10-12T16:44:19.845Z,99.52
2023-10-12T16:46:22.743Z,100.00
2023-10-12T16:48:30.118Z,100.00
2023-10-12T16:50:31.727Z,100.00
2023-10-12T16:52:33.734Z,100.00
2023-10-12T16:54:37.314Z,100.00
2023-10-12T16:56:41.858Z,100.00
2023-10-12T16:58:43.658Z,100.00
2023-10-12T17:00:45.654Z,100.00
2023-10-12T17:02:48.106Z,100.00
2023-10-12T17:04:53.326Z,100.00
2023-10-12T17:06:55.504Z,100.00
2023-10-12T17:08:57.060Z,100.00
2023-10-12T17:11:01.184Z,100.00
2023-10-12T17:13:03.422Z,100.00
2023-10-12T17:15:07.051Z,100.00
2023-10-12T17:17:08.755Z,100.00
2023-10-12T17:19:11.905Z,100.00
2023-10-12T17:21:14.331Z,100.00
2023-10-12T17:23:17.025Z,100.00
2023-10-12T17:25:19.080Z,100.00
2023-10-12T17:27:20.756Z,100.00
2023-10-12T17:29:22.714Z,100.00
2023-10-12T17:31:29.893Z,100.00
2023-10-12T17:33:31.652Z,100.00
2023-10-12T17:35:34.355Z,100.00
2023-10-12T17:37:36.099Z,100.00
2023-10-12T17:39:39.678Z,100.00
2023-10-12T17:41:41.270Z,100.00
2023-10-12T17:43:42.851Z,100.00
2023-10-12T17:45:45.307Z,100.00
2023-10-12T17:47:47.492Z,100.00
2023-10-12T17:49:51.155Z,100.00
2023-10-12T17:51:55.492Z,100.00
2023-10-12T17:53:57.976Z,100.00
2023-10-12T17:55:59.475Z,100.00
2023-10-12T17:58:01.031Z,100.00
2023-10-12T18:00:02.587Z,100.00
2023-10-12T18:02:08.806Z,100.00
2023-10-12T18:04:10.582Z,100.00
2023-10-12T18:06:13.074Z,100.00
2023-10-12T18:08:15.270Z,100.00
2023-10-12T18:10:17.322Z,100.00
2023-10-12T18:12:19.356Z,100.00
2023-10-12T18:14:21.022Z,100.00
2023-10-12T18:16:23.280Z,100.00
2023-10-12T18:18:25.471Z,100.00
2023-10-12T18:20:27.085Z,100.00
2023-10-12T18:22:29.067Z,100.00
2023-10-12T18:24:30.681Z,100.00
2023-10-12T18:26:32.881Z,100.00
2023-10-12T18:28:34.702Z,100.00
2023-10-12T18:30:38.373Z,100.00
2023-10-12T18:32:42.086Z,100.00
2023-10-12T18:34:46.991Z,100.00
2023-10-12T18:36:58.121Z,100.00
2023-10-12T18:39:08.137Z,100.00
2023-10-12T18:41:16.359Z,100.00
2023-10-12T18:43:17.972Z,100.00
2023-10-12T18:45:20.753Z,100.00
2023-10-12T18:47:28.180Z,100.00
2023-10-12T18:49:29.963Z,100.00
2023-10-12T18:51:31.549Z,100.00
2023-10-12T18:53:33.649Z,100.00
2023-10-12T18:55:35.365Z,100.00
2023-10-12T18:57:42.692Z,100.00
2023-10-12T18:59:44.576Z,100.00
2023-10-12T19:01:46.322Z,100.00
2023-10-12T19:03:48.000Z,100.00
2023-10-12T19:05:50.205Z,100.00
2023-10-12T19:07:51.718Z,100.00
2023-10-12T19:09:53.804Z,100.00
2023-10-12T19:11:55.594Z,100.00
2023-10-12T19:13:57.219Z,100.00
2023-10-12T19:15:59.002Z,100.00
2023-10-12T19:18:03.073Z,100.00
2023-10-12T19:20:12.135Z,100.00
2023-10-12T19:22:13.995Z,100.00
2023-10-12T19:24:15.491Z,100.00
2023-10-12T19:26:17.061Z,100.00
2023-10-12T19:28:20.019Z,100.00
2023-10-12T19:30:21.997Z,100.00
2023-10-12T19:32:25.670Z,100.00
2023-10-12T19:34:29.472Z,100.00
2023-10-12T19:36:31.638Z,100.00
2023-10-12T19:38:34.362Z,100.00
2023-10-12T19:40:36.089Z,100.00
2023-10-12T19:42:38.811Z,100.00
2023-10-12T19:44:40.532Z,100.00
2023-10-12T19:46:42.306Z,100.00
2023-10-12T19:48:45.966Z,100.00
2023-10-12T19:50:49.700Z,100.00
2023-10-12T19:52:51.668Z,100.00
2023-10-12T19:54:53.755Z,100.00
2023-10-12T19:56:56.257Z,100.00
2023-10-12T19:58:59.451Z,100.00
2023-10-12T20:01:11.956Z,100.00
2023-10-12T20:03:17.038Z,100.00
2023-10-12T20:05:18.812Z,100.00
2023-10-12T20:07:20.575Z,100.00
2023-10-12T20:09:29.077Z,100.00
2023-10-12T20:11:30.730Z,100.00
2023-10-12T20:13:38.819Z,100.00
2023-10-12T20:15:40.436Z,100.00
2023-10-12T20:17:43.565Z,100.00
2023-10-12T20:19:47.239Z,100.00
2023-10-12T20:21:49.059Z,100.00
2023-10-12T20:23:50.732Z,100.00
2023-10-12T20:25:55.415Z,100.00
2023-10-12T20:27:57.009Z,100.00
2023-10-12T20:29:58.554Z,100.00
2023-10-12T20:32:00.388Z,100.00
2023-10-12T20:34:02.015Z,100.00
2023-10-12T20:36:05.828Z,100.00
2023-10-12T20:38:12.630Z,100.00
2023-10-12T20:40:15.205Z,100.00
2023-10-12T20:42:16.759Z,100.00
2023-10-12T20:44:20.781Z,100.00
2023-10-12T20:46:23.317Z,100.00
2023-10-12T20:48:29.016Z,100.00
2023-10-12T20:50:30.772Z,100.00
2023-10-12T20:52:34.366Z,100.00
2023-10-12T20:54:42.600Z,100.00
2023-10-12T20:56:44.250Z,100.00
2023-10-12T20:58:46.344Z,100.00
2023-10-12T21:00:58.597Z,100.00
2023-10-12T21:03:06.250Z,100.00
2023-10-12T21:05:09.612Z,100.00
2023-10-12T21:07:12.043Z,100.00
2023-10-12T21:09:14.350Z,100.00
2023-10-12T21:11:24.933Z,100.00
2023-10-12T21:13:31.626Z,100.00
2023-10-12T21:15:33.205Z,100.00
2023-10-12T21:17:34.962Z,100.00
2023-10-12T21:19:46.202Z,100.00
2023-10-12T21:21:51.168Z,100.00
2023-10-12T21:23:53.378Z,100.00
2023-10-12T21:26:03.994Z,100.00
2023-10-12T21:28:11.591Z,100.00
2023-10-12T21:30:17.423Z,100.00
2023-10-12T21:32:28.079Z,100.00
2023-10-12T21:34:33.618Z,100.00
2023-10-12T21:36:43.738Z,100.00
2023-10-12T21:38:46.372Z,100.00
2023-10-12T21:40:48.173Z,100.00
2023-10-12T21:42:50.220Z,100.00
2023-10-12T21:44:56.144Z,100.00
2023-10-12T21:47:03.724Z,100.00
2023-10-12T21:49:09.888Z,100.00
2023-10-12T21:51:11.442Z,100.00
2023-10-12T21:53:14.121Z,100.00
2023-10-12T21:55:16.001Z,100.00
2023-10-12T21:57:17.737Z,100.00
2023-10-12T21:59:21.226Z,100.00
2023-10-12T22:01:36.445Z,100.00
2023-10-12T22:03:39.719Z,100.00
2023-10-12T22:05:46.078Z,100.00
2023-10-12T22:07:47.556Z,100.00
2023-10-12T22:10:03.861Z,100.00
2023-10-12T22:12:06.059Z,100.00
2023-10-12T22:14:17.073Z,100.00
2023-10-12T22:16:32.178Z,100.00
2023-10-12T22:18:34.161Z,100.00
2023-10-12T22:20:35.737Z,100.00
2023-10-12T22:22:37.342Z,100.00
2023-10-12T22:24:39.194Z,100.00
2023-10-12T22:26:43.659Z,100.00
2023-10-12T22:28:45.377Z,100.00
2023-10-12T22:30:51.791Z,100.00
2023-10-12T22:32:53.806Z,100.00
2023-10-12T22:34:55.424Z,100.00
2023-10-12T22:36:57.064Z,100.00
2023-10-12T22:38:58.899Z,100.00
2023-10-12T22:41:02.182Z,100.00
2023-10-12T22:43:04.027Z,100.00
2023-10-12T22:45:06.993Z,100.00
2023-10-12T22:47:10.029Z,100.00
2023-10-12T22:49:12.972Z,100.00
2023-10-12T22:51:14.727Z,100.00
2023-10-12T22:53:16.321Z,100.00
2023-10-12T22:55:18.006Z,100.00
2023-10-12T22:57:19.560Z,100.00
2023-10-12T22:59:21.542Z,100.00
2023-10-12T23:01:23.373Z,100.00
2023-10-12T23:03:25.086Z,100.00
2023-10-12T23:05:26.670Z,100.00
2023-10-12T23:07:28.261Z,100.00
2023-10-12T23:09:30.648Z,100.00
2023-10-12T23:11:35.117Z,100.00
2023-10-12T23:13:36.996Z,100.00
2023-10-12T23:15:44.524Z,100.00
2023-10-12T23:17:47.022Z,100.00
2023-10-12T23:19:49.544Z,100.00
2023-10-12T23:21:53.989Z,100.00
2023-10-12T23:23:55.535Z,100.00
2023-10-12T23:26:01.795Z,100.00
2023-10-12T23:28:06.918Z,100.00
2023-10-12T23:30:18.546Z,100.00
2023-10-12T23:32:21.011Z,100.00
2023-10-12T23:34:22.553Z,100.00
2023-10-12T23:36:29.008Z,100.00
2023-10-12T23:38:37.447Z,100.00
2023-10-12T23:40:48.693Z,100.00
2023-10-12T23:42:50.724Z,100.00
2023-10-12T23:44:54.962Z,100.00
2023-10-12T23:46:58.577Z,100.00
2023-10-12T23:49:06.620Z,100.00
2023-10-12T23:51:14.188Z,100.00
2023-10-12T23:53:19.473Z,100.00
2023-10-12T23:55:31.074Z,100.00
2023-10-12T23:57:35.236Z,100.00
2023-10-12T23:59:37.376Z,100.00
